createdAt,value
2022-08-03T00:01:00.560Z,2.83
2022-08-03T00:03:23.281Z,3.00
2022-08-03T00:06:03.948Z,3.60
2022-08-03T00:08:27.660Z,3.15
2022-08-03T00:10:50.252Z,3.13
2022-08-03T00:13:13.311Z,3.78
2022-08-03T00:15:35.947Z,5.35
2022-08-03T00:17:58.587Z,7.20
2022-08-03T00:20:22.144Z,3.50
2022-08-03T00:22:44.916Z,4.30
2022-08-03T00:25:07.700Z,3.33
2022-08-03T00:27:32.667Z,3.63
2022-08-03T00:29:57.643Z,3.30
2022-08-03T00:32:24.750Z,3.50
2022-08-03T00:34:57.630Z,3.28
2022-08-03T00:37:21.709Z,3.53
2022-08-03T00:40:04.381Z,3.97
2022-08-03T00:42:28.541Z,3.80
2022-08-03T00:44:51.415Z,4.25
2022-08-03T00:47:14.020Z,4.85
2022-08-03T00:49:38.826Z,3.00
2022-08-03T00:52:09.581Z,3.90
2022-08-03T00:54:33.441Z,3.40
2022-08-03T00:56:59.295Z,3.25
2022-08-03T00:59:23.037Z,4.22
2022-08-03T01:01:45.630Z,3.80
2022-08-03T01:04:08.288Z,7.22
2022-08-03T01:06:39.989Z,4.00
2022-08-03T01:09:20.972Z,5.28
2022-08-03T01:12:02.062Z,4.70
2022-08-03T01:14:27.508Z,6.28
2022-08-03T01:17:28.040Z,5.82
2022-08-03T01:20:00.497Z,4.63
2022-08-03T01:23:01.983Z,4.80
2022-08-03T01:25:57.053Z,5.35
2022-08-03T01:28:45.602Z,5.80
2022-08-03T01:31:11.696Z,5.70
2022-08-03T01:33:49.894Z,5.23
2022-08-03T01:36:44.836Z,5.60
2022-08-03T01:39:09.568Z,5.22
2022-08-03T01:41:35.282Z,5.65
2022-08-03T01:44:27.478Z,5.45
2022-08-03T01:46:49.187Z,6.67
2022-08-03T01:49:13.517Z,7.60
2022-08-03T01:52:03.430Z,8.50
2022-08-03T01:54:27.603Z,6.47
2022-08-03T01:56:52.201Z,8.48
2022-08-03T01:59:16.632Z,7.73
2022-08-03T02:02:29.789Z,7.35
2022-08-03T02:04:25.682Z,7.93
2022-08-03T02:07:01.415Z,7.30
2022-08-03T02:09:28.804Z,8.25
2022-08-03T02:11:53.234Z,9.97
2022-08-03T02:14:17.511Z,7.70
2022-08-03T02:16:40.784Z,9.20
2022-08-03T02:19:07.526Z,10.38
2022-08-03T02:21:55.958Z,8.00
2022-08-03T02:24:16.372Z,8.90
2022-08-03T02:26:41.356Z,10.35
2022-08-03T02:29:11.460Z,10.10
2022-08-03T02:31:38.413Z,9.15
2022-08-03T02:34:06.768Z,10.23
2022-08-03T02:36:33.861Z,8.87
2022-08-03T02:38:59.877Z,9.65
2022-08-03T02:41:27.815Z,11.25
2022-08-03T02:44:06.616Z,9.15
2022-08-03T02:46:36.142Z,12.25
2022-08-03T02:49:40.676Z,9.37
2022-08-03T02:51:45.850Z,12.38
2022-08-03T02:54:09.701Z,9.68
2022-08-03T02:56:34.431Z,9.43
2022-08-03T02:58:59.160Z,12.30
2022-08-03T03:01:24.532Z,10.50
2022-08-03T03:03:49.210Z,9.10
2022-08-03T03:06:13.496Z,11.45
2022-08-03T03:08:39.272Z,9.73
2022-08-03T03:11:02.341Z,10.32
2022-08-03T03:13:26.096Z,10.17
2022-08-03T03:15:49.749Z,11.70
2022-08-03T03:18:15.919Z,9.68
2022-08-03T03:20:42.362Z,10.32
2022-08-03T03:23:05.696Z,9.35
2022-08-03T03:25:31.802Z,10.37
2022-08-03T03:27:54.758Z,12.07
2022-08-03T03:30:38.187Z,8.70
2022-08-03T03:33:02.844Z,10.77
2022-08-03T03:35:27.055Z,10.02
2022-08-03T03:37:49.801Z,9.23
2022-08-03T03:40:14.442Z,10.95
2022-08-03T03:42:38.438Z,10.20
2022-08-03T03:45:05.761Z,11.00
2022-08-03T03:47:32.762Z,10.38
2022-08-03T03:49:57.648Z,12.50
2022-08-03T03:52:20.332Z,10.82
2022-08-03T03:54:44.259Z,10.15
2022-08-03T03:57:06.865Z,10.70
2022-08-03T03:59:29.696Z,12.05
2022-08-03T04:01:59.038Z,11.27
2022-08-03T04:04:40.766Z,9.60
2022-08-03T04:07:22.356Z,12.85
2022-08-03T04:10:14.486Z,9.90
2022-08-03T04:12:38.854Z,10.88
2022-08-03T04:15:13.920Z,9.80
2022-08-03T04:17:36.858Z,9.93
2022-08-03T04:20:03.086Z,9.13
2022-08-03T04:22:31.961Z,10.15
2022-08-03T04:25:01.472Z,14.70
2022-08-03T04:27:28.728Z,11.30
2022-08-03T04:29:54.610Z,11.85
2022-08-03T04:32:18.193Z,10.85
2022-08-03T04:34:41.242Z,11.25
2022-08-03T04:37:18.915Z,11.25
2022-08-03T04:39:44.431Z,11.77
2022-08-03T04:42:09.245Z,11.50
2022-08-03T04:44:39.162Z,10.80
2022-08-03T04:47:02.412Z,11.15
2022-08-03T04:49:25.532Z,10.98
2022-08-03T04:51:49.567Z,10.37
2022-08-03T04:54:13.379Z,10.70
2022-08-03T04:56:36.031Z,9.63
2022-08-03T04:58:58.597Z,10.68
2022-08-03T05:01:22.600Z,10.43
2022-08-03T05:03:45.286Z,10.67
2022-08-03T05:06:10.938Z,13.07
2022-08-03T05:08:34.190Z,9.60
2022-08-03T05:10:59.354Z,10.68
2022-08-03T05:13:22.069Z,8.80
2022-08-03T05:15:44.741Z,8.80
2022-08-03T05:18:13.378Z,8.75
2022-08-03T05:20:37.122Z,10.15
2022-08-03T05:23:01.642Z,9.23
2022-08-03T05:25:27.293Z,10.65
2022-08-03T05:27:50.122Z,11.53
2022-08-03T05:30:30.701Z,9.98
2022-08-03T05:32:55.827Z,10.75
2022-08-03T05:36:00.709Z,9.73
2022-08-03T05:38:02.733Z,9.50
2022-08-03T05:40:27.659Z,10.57
2022-08-03T05:42:50.344Z,10.13
2022-08-03T05:45:18.650Z,9.13
2022-08-03T05:47:44.269Z,10.25
2022-08-03T05:50:07.250Z,10.38
2022-08-03T05:52:29.833Z,12.90
2022-08-03T05:54:55.468Z,17.40
2022-08-03T05:57:20.202Z,13.23
2022-08-03T05:59:55.540Z,9.77
2022-08-03T06:02:21.644Z,8.52
2022-08-03T06:04:44.175Z,10.67
2022-08-03T06:07:06.755Z,9.48
2022-08-03T06:09:56.598Z,9.70
2022-08-03T06:12:14.163Z,10.48
2022-08-03T06:14:36.976Z,10.40
2022-08-03T06:16:59.592Z,10.63
2022-08-03T06:19:24.370Z,10.90
2022-08-03T06:21:46.949Z,11.45
2022-08-03T06:24:10.108Z,10.82
2022-08-03T06:26:34.524Z,10.48
2022-08-03T06:28:57.078Z,10.00
2022-08-03T06:31:19.607Z,13.57
2022-08-03T06:34:31.478Z,12.95
2022-08-03T06:36:25.893Z,10.48
2022-08-03T06:38:48.504Z,12.80
2022-08-03T06:41:11.088Z,10.23
2022-08-03T06:43:37.778Z,13.57
2022-08-03T06:46:00.765Z,11.00
2022-08-03T06:48:24.463Z,11.07
2022-08-03T06:50:47.111Z,10.48
2022-08-03T06:53:18.270Z,10.53
2022-08-03T06:55:44.106Z,12.40
2022-08-03T06:58:06.798Z,10.45
2022-08-03T07:00:30.924Z,11.30
2022-08-03T07:02:58.065Z,12.18
2022-08-03T07:05:21.381Z,10.07
2022-08-03T07:07:44.486Z,11.35
2022-08-03T07:10:08.598Z,12.52
2022-08-03T07:12:32.454Z,12.23
2022-08-03T07:15:00.930Z,11.73
2022-08-03T07:17:25.412Z,12.23
2022-08-03T07:19:48.708Z,10.93
2022-08-03T07:22:11.662Z,10.75
2022-08-03T07:24:34.706Z,10.45
2022-08-03T07:26:57.563Z,11.30
2022-08-03T07:29:20.767Z,10.30
2022-08-03T07:31:43.381Z,11.05
2022-08-03T07:34:06.142Z,11.40
2022-08-03T07:36:28.759Z,11.40
2022-08-03T07:38:53.241Z,10.40
2022-08-03T07:41:15.917Z,11.60
2022-08-03T07:43:38.614Z,11.50
2022-08-03T07:46:01.270Z,11.73
2022-08-03T07:48:23.990Z,11.13
2022-08-03T07:50:47.502Z,12.35
2022-08-03T07:53:10.083Z,10.87
2022-08-03T07:55:32.754Z,11.15
2022-08-03T07:58:09.977Z,12.50
2022-08-03T08:00:32.830Z,13.25
2022-08-03T08:02:55.497Z,10.90
2022-08-03T08:05:18.214Z,13.00
2022-08-03T08:07:41.249Z,11.15
2022-08-03T08:10:08.808Z,10.98
2022-08-03T08:12:31.690Z,10.75
2022-08-03T08:14:54.358Z,12.60
2022-08-03T08:17:17.009Z,10.93
2022-08-03T08:19:51.336Z,12.82
2022-08-03T08:22:14.564Z,13.27
2022-08-03T08:24:37.990Z,10.20
2022-08-03T08:27:02.173Z,11.00
2022-08-03T08:29:26.677Z,11.77
2022-08-03T08:31:50.534Z,10.57
2022-08-03T08:34:13.274Z,11.77
2022-08-03T08:36:36.332Z,12.65
2022-08-03T08:38:59.443Z,12.18
2022-08-03T08:41:32.316Z,12.50
2022-08-03T08:43:59.829Z,12.90
2022-08-03T08:46:24.192Z,10.82
2022-08-03T08:48:48.985Z,10.48
2022-08-03T08:51:13.585Z,10.45
2022-08-03T08:53:37.497Z,10.63
2022-08-03T08:56:02.109Z,11.00
2022-08-03T08:58:26.345Z,10.30
2022-08-03T09:00:49.405Z,10.15
2022-08-03T09:03:12.606Z,9.50
2022-08-03T09:05:55.739Z,10.00
2022-08-03T09:08:19.035Z,11.82
2022-08-03T09:10:41.978Z,11.05
2022-08-03T09:13:04.621Z,13.57
2022-08-03T09:15:32.754Z,10.93
2022-08-03T09:17:58.545Z,10.67
2022-08-03T09:20:22.817Z,8.80
2022-08-03T09:22:54.691Z,12.80
2022-08-03T09:25:25.158Z,10.65
2022-08-03T09:27:48.042Z,10.98
2022-08-03T09:30:32.503Z,9.77
2022-08-03T09:33:02.706Z,10.55
2022-08-03T09:35:51.609Z,9.32
2022-08-03T09:38:27.324Z,11.48
2022-08-03T09:40:51.587Z,9.30
2022-08-03T09:43:16.577Z,8.23
2022-08-03T09:45:40.390Z,10.35
2022-08-03T09:48:35.129Z,9.57
2022-08-03T09:51:14.167Z,9.55
2022-08-03T09:53:59.222Z,10.95
2022-08-03T09:56:35.839Z,9.23
2022-08-03T09:58:59.303Z,10.00
2022-08-03T10:01:34.221Z,9.00
2022-08-03T10:04:02.996Z,7.72
2022-08-03T10:06:28.990Z,8.00
2022-08-03T10:09:12.679Z,10.03
2022-08-03T10:11:40.845Z,10.50
2022-08-03T10:14:05.976Z,10.25
2022-08-03T10:16:40.025Z,12.18
2022-08-03T10:19:07.678Z,8.30
2022-08-03T10:21:34.839Z,8.40
2022-08-03T10:23:57.689Z,10.27
2022-08-03T10:26:22.582Z,10.02
2022-08-03T10:28:50.114Z,8.45
2022-08-03T10:31:14.297Z,8.40
2022-08-03T10:33:51.668Z,8.43
2022-08-03T10:36:17.070Z,9.63
2022-08-03T10:38:47.240Z,11.75
2022-08-03T10:41:10.989Z,9.73
2022-08-03T10:43:41.415Z,10.02
2022-08-03T10:46:08.745Z,8.00
2022-08-03T10:48:32.597Z,9.32
2022-08-03T10:50:55.564Z,7.68
2022-08-03T10:53:35.636Z,7.70
2022-08-03T10:56:17.518Z,8.15
2022-08-03T10:58:57.881Z,7.70
2022-08-03T11:01:59.911Z,7.97
2022-08-03T11:04:26.746Z,8.25
2022-08-03T11:07:19.069Z,8.32
2022-08-03T11:09:48.499Z,8.02
2022-08-03T11:12:28.303Z,8.20
2022-08-03T11:14:55.832Z,8.88
2022-08-03T11:17:19.339Z,8.30
2022-08-03T11:19:56.701Z,12.65
2022-08-03T11:22:25.122Z,9.48
2022-08-03T11:24:51.178Z,8.17
2022-08-03T11:27:19.737Z,7.28
2022-08-03T11:30:08.739Z,7.72
2022-08-03T11:32:37.823Z,6.88
2022-08-03T11:35:20.258Z,7.82
2022-08-03T11:38:03.495Z,6.67
2022-08-03T11:40:36.263Z,8.40
2022-08-03T11:42:58.860Z,6.63
2022-08-03T11:45:21.657Z,6.95
2022-08-03T11:47:50.690Z,7.22
2022-08-03T11:50:14.177Z,6.40
2022-08-03T11:52:40.052Z,8.93
2022-08-03T11:55:08.428Z,6.70
2022-08-03T11:59:16.469Z,6.10
2022-08-03T12:00:28.864Z,6.30
2022-08-03T12:03:05.411Z,5.70
2022-08-03T12:05:39.949Z,7.55
2022-08-03T12:08:06.741Z,9.63
2022-08-03T12:10:29.728Z,7.00
2022-08-03T12:12:57.766Z,6.00
2022-08-03T12:15:26.136Z,6.13
2022-08-03T12:17:49.569Z,6.03
2022-08-03T12:20:21.956Z,5.80
2022-08-03T12:23:07.609Z,5.50
2022-08-03T12:25:39.161Z,7.10
2022-08-03T12:28:37.021Z,6.60
2022-08-03T12:31:07.833Z,5.63
2022-08-03T12:33:30.604Z,5.32
2022-08-03T12:36:04.541Z,5.30
2022-08-03T12:38:27.627Z,5.95
2022-08-03T12:41:16.703Z,5.83
2022-08-03T12:43:51.200Z,5.40
2022-08-03T12:46:16.979Z,5.57
2022-08-03T12:48:59.106Z,5.63
2022-08-03T12:51:21.796Z,6.80
2022-08-03T12:53:53.189Z,7.30
2022-08-03T12:56:15.768Z,5.47
2022-08-03T12:58:38.677Z,5.15
2022-08-03T13:01:05.192Z,6.70
2022-08-03T13:03:43.584Z,6.20
2022-08-03T13:06:16.683Z,5.77
2022-08-03T13:08:39.452Z,5.47
2022-08-03T13:11:21.771Z,6.20
2022-08-03T13:13:44.609Z,6.18
2022-08-03T13:16:07.186Z,5.60
2022-08-03T13:18:29.836Z,5.27
2022-08-03T13:20:52.540Z,6.13
2022-08-03T13:23:22.597Z,7.30
2022-08-03T13:25:55.360Z,6.53
2022-08-03T13:28:19.543Z,5.32
2022-08-03T13:30:42.442Z,5.67
2022-08-03T13:33:04.990Z,5.72
2022-08-03T13:35:27.672Z,6.40
2022-08-03T13:37:50.422Z,6.15
2022-08-03T13:40:13.325Z,6.18
2022-08-03T13:42:39.001Z,5.53
2022-08-03T13:45:03.030Z,5.90
2022-08-03T13:47:27.305Z,6.55
2022-08-03T13:50:00.072Z,7.55
2022-08-03T13:52:25.225Z,6.15
2022-08-03T13:54:47.749Z,7.27
2022-08-03T13:58:03.345Z,6.43
2022-08-03T13:59:54.928Z,6.80
2022-08-03T14:02:17.514Z,8.90
2022-08-03T14:04:40.129Z,8.20
2022-08-03T14:07:02.775Z,5.63
2022-08-03T14:09:26.899Z,6.95
2022-08-03T14:12:10.032Z,7.35
2022-08-03T14:14:55.960Z,5.72
2022-08-03T14:17:23.213Z,6.15
2022-08-03T14:19:53.561Z,7.27
2022-08-03T14:22:16.774Z,7.00
2022-08-03T14:24:39.460Z,6.85
2022-08-03T14:27:08.636Z,5.80
2022-08-03T14:29:32.040Z,5.72
2022-08-03T14:32:10.363Z,7.30
2022-08-03T14:34:34.913Z,8.82
2022-08-03T14:36:57.612Z,7.30
2022-08-03T14:39:20.395Z,6.40
2022-08-03T14:41:43.151Z,6.55
2022-08-03T14:44:05.931Z,6.03
2022-08-03T14:46:28.652Z,6.20
2022-08-03T14:50:33.566Z,6.13
2022-08-03T14:51:33.830Z,5.90
2022-08-03T14:53:56.353Z,6.78
2022-08-03T14:56:18.967Z,5.43
2022-08-03T14:58:41.740Z,7.38
2022-08-03T15:02:05.604Z,7.18
2022-08-03T15:03:48.620Z,6.18
2022-08-03T15:06:11.132Z,5.68
2022-08-03T15:08:33.978Z,7.17
2022-08-03T15:10:56.551Z,6.28
2022-08-03T15:13:20.055Z,5.53
2022-08-03T15:15:42.652Z,5.45
2022-08-03T15:18:05.280Z,6.68
2022-08-03T15:20:40.970Z,5.20
2022-08-03T15:23:06.359Z,7.10
2022-08-03T15:26:32.398Z,5.50
2022-08-03T15:28:11.654Z,7.82
2022-08-03T15:30:36.995Z,5.95
2022-08-03T15:32:59.643Z,5.57
2022-08-03T15:35:22.232Z,7.00
2022-08-03T15:37:44.957Z,6.28
2022-08-03T15:40:08.448Z,7.78
2022-08-03T15:42:33.332Z,6.40
2022-08-03T15:44:55.933Z,7.47
2022-08-03T15:47:18.733Z,7.15
2022-08-03T15:49:46.301Z,6.20
2022-08-03T15:52:09.029Z,5.65
2022-08-03T15:54:31.628Z,5.78
2022-08-03T15:56:54.209Z,6.63
2022-08-03T15:59:17.175Z,7.07
2022-08-03T16:01:40.861Z,5.35
2022-08-03T16:04:03.676Z,5.90
2022-08-03T16:06:29.531Z,6.40
2022-08-03T16:08:57.546Z,5.80
2022-08-03T16:11:20.239Z,6.85
2022-08-03T16:14:14.559Z,5.95
2022-08-03T16:16:25.442Z,5.35
2022-08-03T16:18:48.031Z,6.00
2022-08-03T16:21:10.915Z,6.00
2022-08-03T16:23:39.732Z,7.18
2022-08-03T16:26:09.135Z,5.10
2022-08-03T16:28:34.133Z,5.97
2022-08-03T16:30:56.879Z,5.60
2022-08-03T16:33:19.558Z,5.30
2022-08-03T16:35:42.302Z,7.22
2022-08-03T16:38:09.999Z,6.95
2022-08-03T16:40:33.853Z,6.57
2022-08-03T16:42:56.372Z,8.70
2022-08-03T16:45:19.178Z,6.07
2022-08-03T16:47:41.818Z,7.03
2022-08-03T16:50:12.959Z,6.97
2022-08-03T16:52:40.269Z,6.35
2022-08-03T16:55:11.811Z,5.68
2022-08-03T16:57:58.688Z,5.27
2022-08-03T17:00:33.229Z,6.03
2022-08-03T17:03:00.783Z,6.90
2022-08-03T17:05:27.630Z,7.30
2022-08-03T17:08:12.734Z,7.50
2022-08-03T17:10:36.084Z,6.63
2022-08-03T17:12:59.508Z,5.97
2022-08-03T17:15:57.251Z,5.80
2022-08-03T17:18:08.905Z,6.72
2022-08-03T17:20:33.521Z,6.72
2022-08-03T17:23:02.964Z,6.20
2022-08-03T17:26:01.671Z,6.45
2022-08-03T17:28:49.759Z,7.00
2022-08-03T17:31:23.200Z,6.22
2022-08-03T17:33:54.968Z,7.10
2022-08-03T17:36:22.698Z,7.07
2022-08-03T17:38:55.999Z,5.80
2022-08-03T17:41:19.735Z,6.28
2022-08-03T17:44:14.982Z,7.47
2022-08-03T17:46:29.546Z,7.63
2022-08-03T17:48:54.073Z,6.53
2022-08-03T17:51:28.877Z,7.78
2022-08-03T17:54:18.419Z,6.03
2022-08-03T17:56:50.794Z,5.93
2022-08-03T17:59:50.747Z,8.20
2022-08-03T18:02:47.745Z,5.40
2022-08-03T18:05:16.387Z,7.72
2022-08-03T18:07:45.216Z,5.95
2022-08-03T18:10:11.308Z,6.60
2022-08-03T18:12:51.735Z,7.72
2022-08-03T18:15:21.359Z,8.33
2022-08-03T18:18:02.186Z,8.10
2022-08-03T18:20:34.585Z,7.88
2022-08-03T18:23:04.895Z,7.28
2022-08-03T18:25:44.440Z,7.07
2022-08-03T18:28:14.111Z,6.57
2022-08-03T18:30:54.523Z,6.72
2022-08-03T18:34:18.324Z,8.95
2022-08-03T18:36:02.712Z,10.07
2022-08-03T18:38:26.021Z,8.57
2022-08-03T18:40:49.040Z,6.27
2022-08-03T18:43:12.418Z,8.27
2022-08-03T18:45:55.703Z,7.80
2022-08-03T18:48:27.087Z,8.63
2022-08-03T18:51:06.966Z,9.63
2022-08-03T18:54:02.824Z,7.23
2022-08-03T18:56:55.899Z,6.90
2022-08-03T18:59:37.214Z,6.90
2022-08-03T19:02:16.508Z,9.90
2022-08-03T19:04:46.554Z,8.88
2022-08-03T19:07:11.109Z,8.40
2022-08-03T19:09:47.086Z,11.52
2022-08-03T19:12:42.276Z,8.18
2022-08-03T19:15:10.525Z,8.05
2022-08-03T19:17:40.303Z,9.85
2022-08-03T19:20:05.610Z,8.30
2022-08-03T19:22:28.430Z,9.85
2022-08-03T19:24:53.816Z,11.85
2022-08-03T19:27:16.511Z,11.85
2022-08-03T19:29:58.962Z,9.45
2022-08-03T19:32:28.863Z,7.57
2022-08-03T19:34:51.959Z,9.57
2022-08-03T19:37:15.417Z,9.00
2022-08-03T19:39:38.565Z,9.32
2022-08-03T19:42:12.247Z,9.15
2022-08-03T19:44:55.163Z,10.70
2022-08-03T19:47:28.576Z,10.40
2022-08-03T19:50:05.764Z,10.80
2022-08-03T19:52:36.565Z,7.63
2022-08-03T19:55:03.907Z,8.55
2022-08-03T19:57:28.893Z,9.80
2022-08-03T19:59:53.915Z,7.65
2022-08-03T20:02:25.644Z,10.90
2022-08-03T20:04:50.369Z,10.00
2022-08-03T20:07:18.067Z,9.10
2022-08-03T20:09:46.264Z,8.40
2022-08-03T20:12:17.646Z,9.40
2022-08-03T20:14:49.424Z,9.00
2022-08-03T20:17:12.648Z,11.85
2022-08-03T20:19:44.289Z,10.70
2022-08-03T20:22:14.332Z,8.30
2022-08-03T20:24:40.533Z,9.38
2022-08-03T20:27:08.741Z,9.02
2022-08-03T20:30:05.255Z,7.38
2022-08-03T20:32:24.504Z,8.15
2022-08-03T20:34:49.453Z,8.43
2022-08-03T20:37:12.180Z,8.93
2022-08-03T20:39:35.121Z,7.63
2022-08-03T20:42:00.785Z,8.05
2022-08-03T20:44:25.966Z,8.00
2022-08-03T20:46:54.992Z,6.67
2022-08-03T20:49:26.033Z,8.88
2022-08-03T20:51:53.238Z,9.50
2022-08-03T20:54:22.920Z,8.27
2022-08-03T20:56:54.116Z,7.72
2022-08-03T20:59:19.078Z,9.43
2022-08-03T21:01:42.208Z,7.03
2022-08-03T21:04:09.329Z,6.88
2022-08-03T21:06:37.717Z,7.15
2022-08-03T21:09:05.181Z,6.82
2022-08-03T21:11:29.988Z,7.47
2022-08-03T21:14:11.140Z,6.85
2022-08-03T21:16:38.870Z,8.77
2022-08-03T21:19:03.885Z,10.20
2022-08-03T21:21:31.328Z,8.38
2022-08-03T21:23:54.994Z,7.10
2022-08-03T21:26:22.426Z,6.53
2022-08-03T21:28:47.355Z,8.35
2022-08-03T21:31:10.744Z,7.00
2022-08-03T21:33:34.157Z,6.55
2022-08-03T21:35:58.633Z,7.37
2022-08-03T21:38:29.943Z,5.72
2022-08-03T21:40:54.700Z,6.57
2022-08-03T21:43:18.670Z,7.80
2022-08-03T21:45:54.192Z,6.47
2022-08-03T21:48:17.316Z,7.13
2022-08-03T21:50:42.480Z,5.75
2022-08-03T21:53:06.862Z,6.50
2022-08-03T21:55:31.019Z,6.90
2022-08-03T21:57:54.811Z,5.53
2022-08-03T22:00:21.618Z,5.90
2022-08-03T22:02:57.172Z,6.40
2022-08-03T22:05:29.066Z,7.80
2022-08-03T22:08:03.276Z,5.90
2022-08-03T22:10:28.843Z,6.35
2022-08-03T22:12:51.549Z,5.80
2022-08-03T22:15:14.498Z,5.50
2022-08-03T22:17:54.527Z,7.15
2022-08-03T22:20:20.569Z,4.90
2022-08-03T22:22:54.975Z,9.32
2022-08-03T22:25:21.841Z,5.93
2022-08-03T22:27:45.914Z,5.70
2022-08-03T22:30:14.999Z,5.85
2022-08-03T22:32:39.154Z,5.40
2022-08-03T22:35:04.663Z,7.28
2022-08-03T22:37:29.393Z,6.90
2022-08-03T22:39:55.204Z,5.20
2022-08-03T22:42:20.347Z,6.10
2022-08-03T22:44:44.860Z,8.05
2022-08-03T22:47:09.760Z,4.80
2022-08-03T22:49:33.601Z,5.27
2022-08-03T22:51:56.999Z,5.80
2022-08-03T22:54:20.069Z,4.88
2022-08-03T22:56:44.126Z,5.85
2022-08-03T22:59:39.004Z,5.05
2022-08-03T23:01:51.855Z,5.47
2022-08-03T23:04:14.612Z,6.30
2022-08-03T23:06:40.505Z,5.10
2022-08-03T23:09:09.384Z,5.20
2022-08-03T23:11:36.394Z,5.65
2022-08-03T23:14:01.603Z,5.93
2022-08-03T23:16:29.280Z,4.90
2022-08-03T23:18:53.251Z,5.07
2022-08-03T23:21:16.652Z,6.60
2022-08-03T23:24:01.601Z,6.93
2022-08-03T23:26:26.517Z,7.00
2022-08-03T23:28:50.217Z,5.97
2022-08-03T23:31:14.813Z,7.13
2022-08-03T23:33:39.053Z,4.95
2022-08-03T23:36:27.551Z,6.05
2022-08-03T23:38:48.924Z,8.27
2022-08-03T23:41:13.561Z,5.05
2022-08-03T23:43:52.397Z,5.40
2022-08-03T23:46:18.338Z,5.63
2022-08-03T23:48:41.200Z,6.05
2022-08-03T23:51:13.128Z,5.00
2022-08-03T23:53:41.845Z,5.68
2022-08-03T23:56:13.936Z,4.75
2022-08-03T23:59:04.410Z,5.75
